createdAt,value
2018-12-04T00:00:38.619Z,99.90
2018-12-04T00:03:08.584Z,99.90
2018-12-04T00:05:38.468Z,99.90
2018-12-04T00:08:08.461Z,99.90
2018-12-04T00:10:38.438Z,99.90
2018-12-04T00:13:08.405Z,99.90
2018-12-04T00:15:38.198Z,99.90
2018-12-04T00:18:08.145Z,99.90
2018-12-04T00:20:38.024Z,99.90
2018-12-04T00:23:08.056Z,99.90
2018-12-04T00:25:38.007Z,99.90
2018-12-04T00:28:07.978Z,99.90
2018-12-04T00:30:37.905Z,99.90
2018-12-04T00:33:07.866Z,99.90
2018-12-04T00:35:37.734Z,99.90
2018-12-04T00:38:07.650Z,99.90
2018-12-04T00:40:37.594Z,99.90
2018-12-04T00:43:07.556Z,99.90
2018-12-04T00:45:37.358Z,99.90
2018-12-04T00:48:07.257Z,99.90
2018-12-04T00:50:37.139Z,99.90
2018-12-04T00:53:10.615Z,99.90
2018-12-04T00:55:41.137Z,99.90
2018-12-04T00:58:10.999Z,99.90
2018-12-04T01:00:41.010Z,99.90
2018-12-04T01:03:10.905Z,99.90
2018-12-04T01:05:40.819Z,99.90
2018-12-04T01:08:10.791Z,99.90
2018-12-04T01:10:40.542Z,99.90
2018-12-04T01:13:10.398Z,99.90
2018-12-04T01:15:40.278Z,99.90
2018-12-04T01:18:10.126Z,99.90
2018-12-04T01:20:40.073Z,99.90
2018-12-04T01:23:09.973Z,99.90
2018-12-04T01:25:39.926Z,99.90
2018-12-04T01:28:09.778Z,99.90
2018-12-04T01:30:39.667Z,99.90
2018-12-04T01:33:09.522Z,99.90
2018-12-04T01:35:39.481Z,99.90
2018-12-04T01:38:09.361Z,99.90
2018-12-04T01:40:39.127Z,99.90
2018-12-04T01:43:09.101Z,99.90
2018-12-04T01:45:39.077Z,99.90
2018-12-04T01:48:08.943Z,99.90
2018-12-04T01:50:38.898Z,99.90
2018-12-04T01:53:08.892Z,99.90
2018-12-04T01:55:38.759Z,99.90
2018-12-04T01:58:08.616Z,99.90
2018-12-04T02:00:38.595Z,99.90
2018-12-04T02:03:08.548Z,99.90
2018-12-04T02:05:38.514Z,99.90
2018-12-04T02:08:08.399Z,99.90
2018-12-04T02:10:38.254Z,99.90
2018-12-04T02:13:08.502Z,99.90
2018-12-04T02:15:38.417Z,99.90
2018-12-04T02:18:08.278Z,99.90
2018-12-04T02:20:38.140Z,99.90
2018-12-04T02:23:08.114Z,99.90
2018-12-04T02:25:38.068Z,99.90
2018-12-04T02:28:07.849Z,99.90
2018-12-04T02:30:37.743Z,99.90
2018-12-04T02:33:07.605Z,99.90
2018-12-04T02:35:37.380Z,99.90
2018-12-04T02:38:07.167Z,99.90
2018-12-04T02:40:37.139Z,99.90
2018-12-04T02:43:07.088Z,99.90
2018-12-04T02:46:17.892Z,99.90
2018-12-04T02:48:46.567Z,99.90
2018-12-04T02:51:15.505Z,99.90
2018-12-04T02:53:43.937Z,99.90
2018-12-04T02:56:12.283Z,99.90
2018-12-04T02:58:40.620Z,99.90
2018-12-04T03:01:09.022Z,99.90
2018-12-04T03:03:37.395Z,99.90
2018-12-04T03:06:05.861Z,99.90
2018-12-04T03:08:34.213Z,99.90
2018-12-04T03:11:02.582Z,99.90
2018-12-04T03:13:30.937Z,99.90
2018-12-04T03:15:59.324Z,99.90
2018-12-04T03:18:27.683Z,99.90
2018-12-04T03:20:56.103Z,99.90
2018-12-04T03:23:24.481Z,99.90
2018-12-04T03:25:52.844Z,99.90
2018-12-04T03:28:21.201Z,99.90
2018-12-04T03:30:49.729Z,99.90
2018-12-04T03:33:34.301Z,99.90
2018-12-04T03:36:02.671Z,99.90
2018-12-04T03:38:31.037Z,99.90
2018-12-04T03:40:59.407Z,99.90
2018-12-04T03:43:27.785Z,99.90
2018-12-04T03:45:56.148Z,99.90
2018-12-04T03:48:24.689Z,99.90
2018-12-04T03:50:53.128Z,99.90
2018-12-04T03:53:21.479Z,99.90
2018-12-04T03:55:49.853Z,99.90
2018-12-04T03:58:18.385Z,99.90
2018-12-04T04:00:46.741Z,99.90
2018-12-04T04:03:15.239Z,99.90
2018-12-04T04:05:43.631Z,99.90
2018-12-04T04:08:11.968Z,99.90
2018-12-04T04:10:40.324Z,99.90
2018-12-04T04:13:09.009Z,99.90
2018-12-04T04:15:37.811Z,99.90
2018-12-04T04:18:06.184Z,99.90
2018-12-04T04:20:34.585Z,99.90
2018-12-04T04:23:02.963Z,99.90
2018-12-04T04:25:31.339Z,99.90
2018-12-04T04:27:59.743Z,99.90
2018-12-04T04:30:28.220Z,99.90
2018-12-04T04:32:56.595Z,99.90
2018-12-04T04:35:24.981Z,99.90
2018-12-04T04:37:53.338Z,99.90
2018-12-04T04:40:21.713Z,99.90
2018-12-04T04:42:50.108Z,99.90
2018-12-04T04:45:18.480Z,99.90
2018-12-04T04:47:46.874Z,99.90
2018-12-04T04:50:15.253Z,99.90
2018-12-04T04:52:43.612Z,99.90
2018-12-04T04:55:12.042Z,99.90
2018-12-04T04:57:40.432Z,99.90
2018-12-04T05:00:09.128Z,99.90
2018-12-04T05:02:37.779Z,99.90
2018-12-04T05:05:06.307Z,99.90
2018-12-04T05:07:34.868Z,99.90
2018-12-04T05:10:03.540Z,99.90
2018-12-04T05:12:31.913Z,99.90
2018-12-04T05:15:00.270Z,99.90
2018-12-04T05:17:28.744Z,99.90
2018-12-04T05:19:57.123Z,99.90
2018-12-04T05:22:25.473Z,99.90
2018-12-04T05:24:54.593Z,99.90
2018-12-04T05:27:22.975Z,99.90
2018-12-04T05:29:51.333Z,99.90
2018-12-04T05:32:19.714Z,99.90
2018-12-04T05:34:48.102Z,99.90
2018-12-04T05:37:16.620Z,99.90
2018-12-04T05:39:44.991Z,99.90
2018-12-04T05:42:13.403Z,99.90
2018-12-04T05:44:41.758Z,99.90
2018-12-04T05:47:10.118Z,99.90
2018-12-04T05:49:38.491Z,99.90
2018-12-04T05:52:06.863Z,99.90
2018-12-04T05:54:35.236Z,99.90
2018-12-04T05:57:03.850Z,99.90
2018-12-04T05:59:32.207Z,99.90
2018-12-04T06:02:00.571Z,99.90
2018-12-04T06:04:29.073Z,99.90
2018-12-04T06:06:57.439Z,99.90
2018-12-04T06:09:25.797Z,99.90
2018-12-04T06:11:54.184Z,99.90
2018-12-04T06:14:22.537Z,99.90
2018-12-04T06:16:51.091Z,99.90
2018-12-04T06:19:19.941Z,99.90
2018-12-04T06:21:48.290Z,99.90
2018-12-04T06:24:16.675Z,99.90
2018-12-04T06:26:45.061Z,99.90
2018-12-04T06:29:13.435Z,99.90
2018-12-04T06:31:42.238Z,99.90
2018-12-04T06:34:10.639Z,99.90
2018-12-04T06:36:38.987Z,99.90
2018-12-04T06:39:08.318Z,99.90
2018-12-04T06:41:36.859Z,99.90
2018-12-04T06:44:05.352Z,99.90
2018-12-04T06:46:34.151Z,99.90
2018-12-04T06:49:03.056Z,99.90
2018-12-04T06:51:31.420Z,99.90
2018-12-04T06:53:59.792Z,99.90
2018-12-04T06:56:28.206Z,99.90
2018-12-04T06:58:56.572Z,99.90
2018-12-04T07:01:24.937Z,99.90
2018-12-04T07:03:53.358Z,99.90
2018-12-04T07:06:21.960Z,99.90
2018-12-04T07:08:50.399Z,99.90
2018-12-04T07:11:18.797Z,99.90
2018-12-04T07:13:47.170Z,99.90
2018-12-04T07:16:15.828Z,99.90
2018-12-04T07:18:44.282Z,99.90
2018-12-04T07:21:12.910Z,99.90
2018-12-04T07:23:41.271Z,99.90
2018-12-04T07:26:09.712Z,99.90
2018-12-04T07:28:38.424Z,99.90
2018-12-04T07:31:07.071Z,99.90
2018-12-04T07:33:35.767Z,99.90
2018-12-04T07:36:04.245Z,99.90
2018-12-04T07:38:32.606Z,99.90
2018-12-04T07:41:01.204Z,99.90
2018-12-04T07:43:29.685Z,99.90
2018-12-04T07:45:58.050Z,99.90
2018-12-04T07:48:26.688Z,99.90
2018-12-04T07:50:55.635Z,99.90
2018-12-04T07:53:23.997Z,99.90
2018-12-04T07:55:52.400Z,99.90
2018-12-04T07:58:20.779Z,99.90
2018-12-04T08:00:49.451Z,99.90
2018-12-04T08:03:18.192Z,99.90
2018-12-04T08:05:46.582Z,99.90
2018-12-04T08:08:14.943Z,99.90
2018-12-04T08:10:43.326Z,99.90
2018-12-04T08:13:11.687Z,99.90
2018-12-04T08:15:40.329Z,99.90
2018-12-04T08:18:09.038Z,99.90
2018-12-04T08:20:37.671Z,99.90
2018-12-04T08:23:06.027Z,99.90
2018-12-04T08:25:34.780Z,99.90
2018-12-04T08:28:03.140Z,99.90
2018-12-04T08:30:31.511Z,99.90
2018-12-04T08:32:59.909Z,99.90
2018-12-04T08:35:28.401Z,99.90
2018-12-04T08:37:56.777Z,99.90
2018-12-04T08:40:25.268Z,99.90
2018-12-04T08:42:53.636Z,99.90
2018-12-04T08:45:22.004Z,99.90
2018-12-04T08:47:50.536Z,99.90
2018-12-04T08:50:19.320Z,99.90
2018-12-04T08:52:47.796Z,99.90
2018-12-04T08:55:16.313Z,99.90
2018-12-04T08:57:44.686Z,99.90
2018-12-04T09:00:13.068Z,99.90
2018-12-04T09:02:41.745Z,99.90
2018-12-04T09:05:10.129Z,99.90
2018-12-04T09:07:38.600Z,99.90
2018-12-04T09:10:07.155Z,99.90
2018-12-04T09:14:04.976Z,99.90
2018-12-04T09:16:33.387Z,99.90
2018-12-04T09:19:02.006Z,99.90
2018-12-04T09:21:30.519Z,99.90
2018-12-04T09:23:59.170Z,99.90
2018-12-04T09:26:27.676Z,99.90
2018-12-04T09:28:56.131Z,99.90
2018-12-04T09:31:24.612Z,99.90
2018-12-04T09:33:52.985Z,99.90
2018-12-04T09:36:21.868Z,99.90
2018-12-04T09:38:50.275Z,99.90
2018-12-04T09:41:18.641Z,99.90
2018-12-04T09:43:47.235Z,99.90
2018-12-04T09:46:15.668Z,99.90
2018-12-04T09:48:44.108Z,99.90
2018-12-04T09:51:12.474Z,99.90
2018-12-04T09:53:40.875Z,99.90
2018-12-04T09:56:09.290Z,99.90
2018-12-04T09:58:37.651Z,99.90
2018-12-04T10:01:06.332Z,99.90
2018-12-04T10:03:34.959Z,99.90
2018-12-04T10:06:03.364Z,99.90
2018-12-04T10:08:31.757Z,99.90
2018-12-04T10:11:00.125Z,99.90
2018-12-04T10:13:28.786Z,99.90
2018-12-04T10:15:57.172Z,99.90
2018-12-04T10:18:25.551Z,99.90
2018-12-04T10:20:54.029Z,99.90
2018-12-04T10:23:22.960Z,99.90
2018-12-04T10:25:52.055Z,99.90
2018-12-04T10:28:21.245Z,99.90
2018-12-04T10:30:54.884Z,99.90
2018-12-04T10:33:23.251Z,99.90
2018-12-04T10:35:51.637Z,99.90
2018-12-04T10:38:20.045Z,99.90
2018-12-04T10:40:48.648Z,99.90
2018-12-04T10:43:17.047Z,99.90
2018-12-04T10:45:45.463Z,99.90
2018-12-04T10:48:13.817Z,99.90
2018-12-04T10:50:42.220Z,99.90
2018-12-04T10:53:10.608Z,99.90
2018-12-04T10:55:39.109Z,99.90
2018-12-04T10:58:07.481Z,98.80
2018-12-04T11:00:41.034Z,96.70
2018-12-04T11:03:13.226Z,96.40
2018-12-04T11:05:42.689Z,96.30
2018-12-04T11:08:11.280Z,91.90
2018-12-04T11:10:39.650Z,93.40
2018-12-04T11:13:08.050Z,93.40
2018-12-04T11:15:36.569Z,92.60
2018-12-04T11:18:04.931Z,92.70
2018-12-04T11:20:33.813Z,92.60
2018-12-04T11:23:02.212Z,89.90
2018-12-04T11:25:30.599Z,92.80
2018-12-04T11:27:59.040Z,94.20
2018-12-04T11:30:27.389Z,95.80
2018-12-04T11:32:56.062Z,93.60
2018-12-04T11:35:24.445Z,93.60
2018-12-04T11:37:53.095Z,91.40
2018-12-04T11:40:21.468Z,92.60
2018-12-04T11:42:49.859Z,94.40
2018-12-04T11:45:18.400Z,94.70
2018-12-04T11:47:46.760Z,96.10
2018-12-04T11:50:15.307Z,94.20
2018-12-04T11:52:43.978Z,93.40
2018-12-04T11:55:12.333Z,90.80
2018-12-04T11:57:40.720Z,90.60
2018-12-04T12:00:45.482Z,90.30
2018-12-04T12:03:14.097Z,91.00
2018-12-04T12:05:42.476Z,89.60
2018-12-04T12:08:10.850Z,85.90
2018-12-04T12:10:39.231Z,89.30
2018-12-04T12:13:07.588Z,86.30
2018-12-04T12:15:36.544Z,84.20
2018-12-04T12:18:04.957Z,83.20
2018-12-04T12:20:33.328Z,84.50
2018-12-04T12:23:01.713Z,82.90
2018-12-04T12:25:30.094Z,82.30
2018-12-04T12:27:58.495Z,82.70
2018-12-04T12:30:27.159Z,82.70
2018-12-04T12:32:55.587Z,82.40
2018-12-04T12:35:23.960Z,81.30
2018-12-04T12:37:52.365Z,81.70
2018-12-04T12:40:20.998Z,80.60
2018-12-04T12:42:49.366Z,79.90
2018-12-04T12:45:17.738Z,81.80
2018-12-04T12:47:46.165Z,80.10
2018-12-04T12:50:14.807Z,80.60
2018-12-04T12:52:44.401Z,80.00
2018-12-04T12:55:13.381Z,77.60
2018-12-04T12:57:41.800Z,77.60
2018-12-04T13:00:10.717Z,76.60
2018-12-04T13:02:40.439Z,76.10
2018-12-04T13:05:08.949Z,75.60
2018-12-04T13:07:37.328Z,76.50
2018-12-04T13:10:08.626Z,77.50
2018-12-04T13:12:36.996Z,75.90
2018-12-04T13:15:07.099Z,74.70
2018-12-04T13:17:35.655Z,74.20
2018-12-04T13:20:05.280Z,74.50
2018-12-04T13:22:33.662Z,72.50
2018-12-04T13:25:02.327Z,73.70
2018-12-04T13:27:30.689Z,75.60
2018-12-04T13:29:59.091Z,77.10
2018-12-04T13:32:27.629Z,74.10
2018-12-04T13:34:56.035Z,74.10
2018-12-04T13:37:24.444Z,75.20
2018-12-04T13:39:52.875Z,77.40
2018-12-04T13:42:21.246Z,77.50
2018-12-04T13:44:49.618Z,76.30
2018-12-04T13:47:18.042Z,77.60
2018-12-04T13:49:46.422Z,79.50
2018-12-04T13:52:14.793Z,80.70
2018-12-04T13:54:43.217Z,82.50
2018-12-04T13:57:11.729Z,86.00
2018-12-04T13:59:40.143Z,86.60
2018-12-04T14:02:09.412Z,90.00
2018-12-04T14:04:37.827Z,91.40
2018-12-04T14:07:06.459Z,91.30
2018-12-04T14:09:34.848Z,91.80
2018-12-04T14:12:03.311Z,90.30
2018-12-04T14:14:31.721Z,90.10
2018-12-04T14:17:00.417Z,91.20
2018-12-04T14:19:29.072Z,92.50
2018-12-04T14:21:57.573Z,89.80
2018-12-04T14:24:26.167Z,92.10
2018-12-04T14:26:54.748Z,90.90
2018-12-04T14:29:23.147Z,91.90
2018-12-04T14:31:52.261Z,92.20
2018-12-04T14:34:20.620Z,93.90
2018-12-04T14:36:49.025Z,96.30
2018-12-04T14:39:17.464Z,98.00
2018-12-04T14:41:46.484Z,97.30
2018-12-04T14:44:15.082Z,97.80
2018-12-04T14:46:43.578Z,95.60
2018-12-04T14:49:11.998Z,94.50
2018-12-04T14:51:40.473Z,99.50
2018-12-04T14:54:09.069Z,99.00
2018-12-04T14:56:37.603Z,99.90
2018-12-04T14:59:06.312Z,99.90
2018-12-04T15:01:34.823Z,99.90
2018-12-04T15:04:03.642Z,99.90
2018-12-04T15:06:32.111Z,99.90
2018-12-04T15:09:00.504Z,99.90
2018-12-04T15:11:28.917Z,99.90
2018-12-04T15:13:57.386Z,99.90
2018-12-04T15:16:25.809Z,99.90
2018-12-04T15:18:54.360Z,99.90
2018-12-04T15:21:22.892Z,99.90
2018-12-04T15:23:51.305Z,99.90
2018-12-04T15:26:19.943Z,99.90
2018-12-04T15:28:48.652Z,99.90
2018-12-04T15:31:17.153Z,99.90
2018-12-04T15:33:45.535Z,99.90
2018-12-04T15:36:14.096Z,99.90
2018-12-04T15:38:42.626Z,99.90
2018-12-04T15:41:11.100Z,99.90
2018-12-04T15:43:39.561Z,99.90
2018-12-04T15:46:08.271Z,99.90
2018-12-04T15:48:36.730Z,99.90
2018-12-04T15:51:05.162Z,99.90
2018-12-04T15:53:33.676Z,99.90
2018-12-04T15:56:02.050Z,99.90
2018-12-04T15:58:31.027Z,99.90
2018-12-04T16:00:59.921Z,99.90
2018-12-04T16:03:28.486Z,99.90
2018-12-04T16:05:56.882Z,99.90
2018-12-04T16:08:25.295Z,99.90
2018-12-04T16:10:53.917Z,99.90
2018-12-04T16:13:22.317Z,99.90
2018-12-04T16:15:50.911Z,99.90
2018-12-04T16:18:19.309Z,99.90
2018-12-04T16:20:48.758Z,99.90
2018-12-04T16:23:17.652Z,99.90
2018-12-04T16:25:46.089Z,99.90
2018-12-04T16:28:14.488Z,99.90
2018-12-04T16:30:43.277Z,99.90
2018-12-04T16:33:11.933Z,99.90
2018-12-04T16:35:40.449Z,99.90
2018-12-04T16:38:09.172Z,99.90
2018-12-04T16:40:37.593Z,99.90
2018-12-04T16:43:06.179Z,99.90
2018-12-04T16:45:34.638Z,99.90
2018-12-04T16:48:03.042Z,99.90
2018-12-04T16:50:31.412Z,99.90
2018-12-04T16:52:59.880Z,99.90
2018-12-04T16:55:28.392Z,99.90
2018-12-04T16:57:56.774Z,99.90
2018-12-04T17:00:25.610Z,99.90
2018-12-04T17:02:54.212Z,99.90
2018-12-04T17:05:22.852Z,99.90
2018-12-04T17:07:51.286Z,99.90
2018-12-04T17:10:22.540Z,99.90
2018-12-04T17:12:50.473Z,99.90
2018-12-04T17:15:18.901Z,99.90
2018-12-04T17:17:47.284Z,99.90
2018-12-04T17:20:15.698Z,99.90
2018-12-04T17:22:44.305Z,99.90
2018-12-04T17:25:12.974Z,99.90
2018-12-04T17:27:41.382Z,99.90
2018-12-04T17:30:11.318Z,99.90
2018-12-04T17:32:39.919Z,99.90
2018-12-04T17:35:08.920Z,99.90
2018-12-04T17:37:37.349Z,99.90
2018-12-04T17:40:07.016Z,99.90
2018-12-04T17:42:35.410Z,99.90
2018-12-04T17:45:04.091Z,99.90
2018-12-04T17:47:32.683Z,99.90
2018-12-04T17:50:01.317Z,99.90
2018-12-04T17:52:30.880Z,99.90
2018-12-04T17:54:59.320Z,99.90
2018-12-04T17:57:28.027Z,99.90
2018-12-04T17:59:56.463Z,99.90
2018-12-04T18:02:24.858Z,99.90
2018-12-04T18:04:53.247Z,99.90
2018-12-04T18:07:21.686Z,99.90
2018-12-04T18:09:50.081Z,99.90
2018-12-04T18:12:18.937Z,99.90
2018-12-04T18:14:47.615Z,99.90
2018-12-04T18:17:16.008Z,99.90
2018-12-04T18:19:44.743Z,99.90
2018-12-04T18:22:13.265Z,99.90
2018-12-04T18:24:41.703Z,99.90
2018-12-04T18:27:10.125Z,99.90
2018-12-04T18:29:38.530Z,99.90
2018-12-04T18:32:06.955Z,99.90
2018-12-04T18:34:35.343Z,99.90
2018-12-04T18:37:03.844Z,99.90
2018-12-04T18:39:32.428Z,99.90
2018-12-04T18:42:01.106Z,99.90
2018-12-04T18:44:29.752Z,99.90
2018-12-04T18:46:58.129Z,99.90
2018-12-04T18:49:26.504Z,99.90
2018-12-04T18:51:54.904Z,99.90
2018-12-04T18:54:23.417Z,99.90
2018-12-04T18:56:52.494Z,99.90
2018-12-04T18:59:21.226Z,99.90
2018-12-04T19:01:49.618Z,99.90
2018-12-04T19:04:18.152Z,99.90
2018-12-04T19:06:46.575Z,99.90
2018-12-04T19:09:15.121Z,99.90
2018-12-04T19:11:43.701Z,99.90
2018-12-04T19:14:12.129Z,99.90
2018-12-04T19:16:40.646Z,99.90
2018-12-04T19:19:09.021Z,99.90
2018-12-04T19:21:37.708Z,99.90
2018-12-04T19:24:06.114Z,99.90
2018-12-04T19:26:35.525Z,99.90
2018-12-04T19:29:04.138Z,99.90
2018-12-04T19:31:32.551Z,99.90
2018-12-04T19:34:01.216Z,99.90
2018-12-04T19:36:29.624Z,99.90
2018-12-04T19:38:58.053Z,99.90
2018-12-04T19:41:28.005Z,99.90
2018-12-04T19:43:56.954Z,99.90
2018-12-04T19:46:25.613Z,99.90
2018-12-04T19:48:54.006Z,99.90
2018-12-04T19:51:22.420Z,99.90
2018-12-04T19:53:50.802Z,99.90
2018-12-04T19:56:19.453Z,99.90
2018-12-04T19:58:47.940Z,99.90
2018-12-04T20:01:16.335Z,99.90
2018-12-04T20:03:44.999Z,99.90
2018-12-04T20:06:13.441Z,99.90
2018-12-04T20:08:47.278Z,99.90
2018-12-04T20:11:15.731Z,99.90
2018-12-04T20:13:44.316Z,99.90
2018-12-04T20:16:12.978Z,99.90
2018-12-04T20:18:41.658Z,99.90
2018-12-04T20:21:10.068Z,99.90
2018-12-04T20:23:38.530Z,99.90
2018-12-04T20:26:07.148Z,99.90
2018-12-04T20:28:35.524Z,99.90
2018-12-04T20:31:04.134Z,99.90
2018-12-04T20:33:32.619Z,99.90
2018-12-04T20:36:00.998Z,99.90
2018-12-04T20:38:29.746Z,99.90
2018-12-04T20:40:58.203Z,99.90
2018-12-04T20:43:26.652Z,99.90
2018-12-04T20:45:55.061Z,99.90
2018-12-04T20:48:23.751Z,99.90
2018-12-04T20:50:52.160Z,99.90
2018-12-04T20:53:20.563Z,99.90
2018-12-04T20:55:49.241Z,99.90
2018-12-04T20:58:18.190Z,99.90
2018-12-04T21:00:46.596Z,99.90
2018-12-04T21:03:15.315Z,99.90
2018-12-04T21:05:44.279Z,99.90
2018-12-04T21:08:12.664Z,99.90
2018-12-04T21:10:41.168Z,99.90
2018-12-04T21:13:14.449Z,99.90
2018-12-04T21:15:40.264Z,99.90
2018-12-04T21:18:08.654Z,99.90
2018-12-04T21:20:37.313Z,99.90
2018-12-04T21:23:05.722Z,99.90
2018-12-04T21:25:34.593Z,99.90
2018-12-04T21:28:08.584Z,99.90
2018-12-04T21:30:42.304Z,99.90
2018-12-04T21:33:15.926Z,99.90
2018-12-04T21:35:49.556Z,99.90
2018-12-04T21:38:23.372Z,99.90
2018-12-04T21:40:57.640Z,99.90
2018-12-04T21:43:31.468Z,99.90
2018-12-04T21:46:05.300Z,99.90
2018-12-04T21:48:35.306Z,99.90
2018-12-04T21:51:04.179Z,99.90
2018-12-04T21:53:32.695Z,99.90
2018-12-04T21:56:01.204Z,99.90
2018-12-04T21:58:30.125Z,99.90
2018-12-04T22:00:58.864Z,99.90
2018-12-04T22:03:27.242Z,99.90
2018-12-04T22:05:55.735Z,99.90
2018-12-04T22:08:24.448Z,99.90
2018-12-04T22:10:52.865Z,99.90
2018-12-04T22:13:21.244Z,99.90
2018-12-04T22:15:49.904Z,99.90
2018-12-04T22:18:18.627Z,99.90
2018-12-04T22:20:47.286Z,99.90
2018-12-04T22:23:16.025Z,99.90
2018-12-04T22:25:44.749Z,99.90
2018-12-04T22:28:13.351Z,99.90
2018-12-04T22:30:41.822Z,99.90
2018-12-04T22:33:10.336Z,99.90
2018-12-04T22:35:39.137Z,99.90
2018-12-04T22:38:07.850Z,99.90
2018-12-04T22:40:36.485Z,99.90
2018-12-04T22:43:05.130Z,99.90
2018-12-04T22:45:35.303Z,99.90
2018-12-04T22:48:04.078Z,99.90
2018-12-04T22:50:33.286Z,99.90
2018-12-04T22:53:02.844Z,99.90
2018-12-04T22:55:31.595Z,99.90
2018-12-04T22:58:00.005Z,99.90
2018-12-04T23:00:39.039Z,99.90
2018-12-04T23:03:07.890Z,99.90
2018-12-04T23:05:36.761Z,99.90
2018-12-04T23:08:05.490Z,99.90
2018-12-04T23:10:33.853Z,99.90
2018-12-04T23:13:02.228Z,99.90
2018-12-04T23:15:30.631Z,99.90
2018-12-04T23:17:59.005Z,99.90
2018-12-04T23:20:27.780Z,99.90
2018-12-04T23:22:56.360Z,99.90
2018-12-04T23:25:24.733Z,99.90
2018-12-04T23:27:53.193Z,99.90
2018-12-04T23:30:21.587Z,99.90
2018-12-04T23:32:49.979Z,99.90
2018-12-04T23:35:18.647Z,99.90
2018-12-04T23:37:47.244Z,99.90
2018-12-04T23:40:15.608Z,99.90
2018-12-04T23:42:43.967Z,99.90
2018-12-04T23:45:12.361Z,99.90
2018-12-04T23:47:40.839Z,99.90
2018-12-04T23:50:09.256Z,99.90
2018-12-04T23:52:37.926Z,99.90
2018-12-04T23:55:06.674Z,99.90
2018-12-04T23:57:35.158Z,99.90
